sensor_id;sensor_type;location;lat;lon;timestamp;P1;durP1;ratioP1;P2;durP2;ratioP2
75246;SDS011;63844;50.042;19.224;2023-04-03T00:00:31;9.70;;;5.30;;
75246;SDS011;63844;50.042;19.224;2023-04-03T00:03:13;9.20;;;5.00;;
75246;SDS011;63844;50.042;19.224;2023-04-03T00:05:40;9.30;;;5.00;;
75246;SDS011;63844;50.042;19.224;2023-04-03T00:08:07;11.60;;;5.10;;
75246;SDS011;63844;50.042;19.224;2023-04-03T00:10:36;11.90;;;6.00;;
75246;SDS011;63844;50.042;19.224;2023-04-03T00:13:03;10.50;;;4.70;;
75246;SDS011;63844;50.042;19.224;2023-04-03T00:15:31;10.70;;;5.10;;
75246;SDS011;63844;50.042;19.224;2023-04-03T00:17:58;8.60;;;4.60;;
75246;SDS011;63844;50.042;19.224;2023-04-03T00:20:24;8.80;;;3.20;;
75246;SDS011;63844;50.042;19.224;2023-04-03T00:22:51;9.40;;;5.00;;
75246;SDS011;63844;50.042;19.224;2023-04-03T00:25:17;9.30;;;5.10;;
75246;SDS011;63844;50.042;19.224;2023-04-03T00:27:44;8.80;;;4.90;;
75246;SDS011;63844;50.042;19.224;2023-04-03T00:30:13;6.10;;;2.70;;
75246;SDS011;63844;50.042;19.224;2023-04-03T00:32:42;6.90;;;4.10;;
75246;SDS011;63844;50.042;19.224;2023-04-03T00:35:08;4.90;;;2.90;;
75246;SDS011;63844;50.042;19.224;2023-04-03T00:37:36;5.70;;;3.00;;
75246;SDS011;63844;50.042;19.224;2023-04-03T00:40:03;4.90;;;2.40;;
75246;SDS011;63844;50.042;19.224;2023-04-03T00:47:23;5.00;;;1.70;;
75246;SDS011;63844;50.042;19.224;2023-04-03T00:49:51;4.80;;;2.50;;
75246;SDS011;63844;50.042;19.224;2023-04-03T00:52:19;4.30;;;2.40;;
75246;SDS011;63844;50.042;19.224;2023-04-03T00:54:50;4.80;;;2.40;;
75246;SDS011;63844;50.042;19.224;2023-04-03T00:57:20;3.80;;;2.70;;
75246;SDS011;63844;50.042;19.224;2023-04-03T00:59:49;4.10;;;2.30;;
75246;SDS011;63844;50.042;19.224;2023-04-03T01:02:19;2.00;;;1.20;;
75246;SDS011;63844;50.042;19.224;2023-04-03T01:04:46;5.50;;;2.30;;
75246;SDS011;63844;50.042;19.224;2023-04-03T01:07:17;3.20;;;1.60;;
75246;SDS011;63844;50.042;19.224;2023-04-03T01:09:47;2.30;;;1.60;;
75246;SDS011;63844;50.042;19.224;2023-04-03T01:12:21;2.30;;;1.40;;
75246;SDS011;63844;50.042;19.224;2023-04-03T01:25:30;2.30;;;0.50;;
75246;SDS011;63844;50.042;19.224;2023-04-03T01:27:56;2.40;;;1.40;;
75246;SDS011;63844;50.042;19.224;2023-04-03T01:30:24;2.70;;;1.30;;
75246;SDS011;63844;50.042;19.224;2023-04-03T01:32:59;3.10;;;1.60;;
75246;SDS011;63844;50.042;19.224;2023-04-03T01:35:25;2.00;;;1.00;;
75246;SDS011;63844;50.042;19.224;2023-04-03T01:37:52;3.50;;;1.40;;
75246;SDS011;63844;50.042;19.224;2023-04-03T01:40:19;2.80;;;1.60;;
75246;SDS011;63844;50.042;19.224;2023-04-03T01:42:45;5.00;;;1.90;;
75246;SDS011;63844;50.042;19.224;2023-04-03T01:45:12;2.50;;;1.40;;
75246;SDS011;63844;50.042;19.224;2023-04-03T01:47:38;2.70;;;1.60;;
75246;SDS011;63844;50.042;19.224;2023-04-03T01:50:05;4.90;;;2.10;;
75246;SDS011;63844;50.042;19.224;2023-04-03T01:52:32;5.00;;;2.40;;
75246;SDS011;63844;50.042;19.224;2023-04-03T01:54:58;3.80;;;2.00;;
75246;SDS011;63844;50.042;19.224;2023-04-03T01:57:25;7.00;;;3.40;;
75246;SDS011;63844;50.042;19.224;2023-04-03T01:59:51;5.00;;;3.30;;
75246;SDS011;63844;50.042;19.224;2023-04-03T02:02:18;7.00;;;3.70;;
75246;SDS011;63844;50.042;19.224;2023-04-03T02:04:46;10.10;;;4.80;;
75246;SDS011;63844;50.042;19.224;2023-04-03T02:07:12;8.80;;;4.30;;
75246;SDS011;63844;50.042;19.224;2023-04-03T02:09:39;7.40;;;4.30;;
75246;SDS011;63844;50.042;19.224;2023-04-03T02:12:05;9.00;;;4.70;;
75246;SDS011;63844;50.042;19.224;2023-04-03T02:14:32;6.70;;;3.70;;
75246;SDS011;63844;50.042;19.224;2023-04-03T02:17:00;8.80;;;4.20;;
75246;SDS011;63844;50.042;19.224;2023-04-03T02:19:27;7.00;;;3.60;;
75246;SDS011;63844;50.042;19.224;2023-04-03T02:21:53;8.00;;;4.80;;
75246;SDS011;63844;50.042;19.224;2023-04-03T02:24:20;8.20;;;4.40;;
75246;SDS011;63844;50.042;19.224;2023-04-03T02:26:47;12.00;;;6.10;;
75246;SDS011;63844;50.042;19.224;2023-04-03T02:29:13;10.30;;;5.60;;
75246;SDS011;63844;50.042;19.224;2023-04-03T02:31:40;9.60;;;5.40;;
75246;SDS011;63844;50.042;19.224;2023-04-03T02:34:06;7.50;;;4.60;;
75246;SDS011;63844;50.042;19.224;2023-04-03T02:36:32;8.50;;;4.10;;
75246;SDS011;63844;50.042;19.224;2023-04-03T02:38:59;7.30;;;4.30;;
75246;SDS011;63844;50.042;19.224;2023-04-03T02:41:25;9.30;;;4.60;;
75246;SDS011;63844;50.042;19.224;2023-04-03T02:43:59;9.60;;;6.00;;
75246;SDS011;63844;50.042;19.224;2023-04-03T02:46:26;8.40;;;5.60;;
75246;SDS011;63844;50.042;19.224;2023-04-03T02:48:52;9.60;;;5.40;;
75246;SDS011;63844;50.042;19.224;2023-04-03T02:51:19;11.10;;;5.50;;
75246;SDS011;63844;50.042;19.224;2023-04-03T02:53:46;8.80;;;4.60;;
75246;SDS011;63844;50.042;19.224;2023-04-03T02:56:12;11.30;;;5.80;;
75246;SDS011;63844;50.042;19.224;2023-04-03T02:58:39;9.40;;;5.10;;
75246;SDS011;63844;50.042;19.224;2023-04-03T03:01:05;6.10;;;4.10;;
75246;SDS011;63844;50.042;19.224;2023-04-03T03:03:31;11.30;;;6.00;;
75246;SDS011;63844;50.042;19.224;2023-04-03T03:06:05;8.60;;;4.80;;
75246;SDS011;63844;50.042;19.224;2023-04-03T03:08:40;10.00;;;6.10;;
75246;SDS011;63844;50.042;19.224;2023-04-03T03:11:07;8.40;;;5.10;;
75246;SDS011;63844;50.042;19.224;2023-04-03T03:13:34;10.80;;;6.10;;
75246;SDS011;63844;50.042;19.224;2023-04-03T03:16:01;10.40;;;5.90;;
75246;SDS011;63844;50.042;19.224;2023-04-03T03:18:28;11.10;;;5.80;;
75246;SDS011;63844;50.042;19.224;2023-04-03T03:20:56;9.70;;;5.50;;
75246;SDS011;63844;50.042;19.224;2023-04-03T03:23:25;10.30;;;5.40;;
75246;SDS011;63844;50.042;19.224;2023-04-03T03:25:56;10.30;;;5.80;;
75246;SDS011;63844;50.042;19.224;2023-04-03T03:28:27;8.60;;;4.90;;
75246;SDS011;63844;50.042;19.224;2023-04-03T03:30:54;6.70;;;3.70;;
75246;SDS011;63844;50.042;19.224;2023-04-03T03:33:21;6.90;;;4.40;;
75246;SDS011;63844;50.042;19.224;2023-04-03T03:35:48;11.60;;;5.60;;
75246;SDS011;63844;50.042;19.224;2023-04-03T03:38:14;9.60;;;5.30;;
75246;SDS011;63844;50.042;19.224;2023-04-03T03:40:41;7.80;;;4.50;;
75246;SDS011;63844;50.042;19.224;2023-04-03T03:43:07;8.30;;;4.90;;
75246;SDS011;63844;50.042;19.224;2023-04-03T03:45:34;9.60;;;5.40;;
75246;SDS011;63844;50.042;19.224;2023-04-03T03:48:00;11.20;;;6.30;;
75246;SDS011;63844;50.042;19.224;2023-04-03T03:50:28;9.60;;;5.50;;
75246;SDS011;63844;50.042;19.224;2023-04-03T03:52:54;8.80;;;4.50;;
75246;SDS011;63844;50.042;19.224;2023-04-03T03:55:21;7.90;;;3.60;;
75246;SDS011;63844;50.042;19.224;2023-04-03T03:57:48;8.30;;;4.20;;
75246;SDS011;63844;50.042;19.224;2023-04-03T04:00:14;11.50;;;5.00;;
75246;SDS011;63844;50.042;19.224;2023-04-03T04:02:42;9.40;;;4.40;;
75246;SDS011;63844;50.042;19.224;2023-04-03T04:05:08;6.20;;;3.10;;
75246;SDS011;63844;50.042;19.224;2023-04-03T04:07:35;7.10;;;3.90;;
75246;SDS011;63844;50.042;19.224;2023-04-03T04:10:02;7.40;;;4.00;;
75246;SDS011;63844;50.042;19.224;2023-04-03T04:12:29;13.20;;;5.30;;
75246;SDS011;63844;50.042;19.224;2023-04-03T04:14:56;10.90;;;5.30;;
75246;SDS011;63844;50.042;19.224;2023-04-03T04:17:22;10.60;;;5.40;;
75246;SDS011;63844;50.042;19.224;2023-04-03T04:19:49;11.40;;;4.30;;
75246;SDS011;63844;50.042;19.224;2023-04-03T04:22:15;14.40;;;6.00;;
75246;SDS011;63844;50.042;19.224;2023-04-03T04:24:42;9.70;;;4.80;;
75246;SDS011;63844;50.042;19.224;2023-04-03T04:27:08;9.60;;;4.80;;
75246;SDS011;63844;50.042;19.224;2023-04-03T04:29:35;4.00;;;1.50;;
75246;SDS011;63844;50.042;19.224;2023-04-03T04:32:03;8.20;;;4.20;;
75246;SDS011;63844;50.042;19.224;2023-04-03T04:34:30;9.70;;;3.90;;
75246;SDS011;63844;50.042;19.224;2023-04-03T04:36:56;10.90;;;5.10;;
75246;SDS011;63844;50.042;19.224;2023-04-03T04:39:23;7.50;;;3.80;;
75246;SDS011;63844;50.042;19.224;2023-04-03T04:41:49;11.90;;;5.50;;
75246;SDS011;63844;50.042;19.224;2023-04-03T04:44:16;11.10;;;4.40;;
75246;SDS011;63844;50.042;19.224;2023-04-03T04:46:43;8.40;;;3.30;;
75246;SDS011;63844;50.042;19.224;2023-04-03T04:49:09;13.10;;;5.00;;
75246;SDS011;63844;50.042;19.224;2023-04-03T04:51:36;11.80;;;5.60;;
75246;SDS011;63844;50.042;19.224;2023-04-03T04:54:02;13.50;;;6.60;;
75246;SDS011;63844;50.042;19.224;2023-04-03T04:56:29;16.00;;;7.30;;
75246;SDS011;63844;50.042;19.224;2023-04-03T04:58:55;17.10;;;7.80;;
75246;SDS011;63844;50.042;19.224;2023-04-03T05:01:22;14.40;;;6.30;;
75246;SDS011;63844;50.042;19.224;2023-04-03T05:03:48;13.70;;;6.20;;
75246;SDS011;63844;50.042;19.224;2023-04-03T05:06:15;9.40;;;4.50;;
75246;SDS011;63844;50.042;19.224;2023-04-03T05:08:41;13.40;;;5.30;;
75246;SDS011;63844;50.042;19.224;2023-04-03T05:11:08;8.50;;;4.50;;
75246;SDS011;63844;50.042;19.224;2023-04-03T05:13:35;8.40;;;3.70;;
75246;SDS011;63844;50.042;19.224;2023-04-03T05:16:01;8.00;;;4.10;;
75246;SDS011;63844;50.042;19.224;2023-04-03T05:18:28;4.70;;;2.50;;
75246;SDS011;63844;50.042;19.224;2023-04-03T05:20:54;4.90;;;2.30;;
75246;SDS011;63844;50.042;19.224;2023-04-03T05:23:21;6.10;;;2.80;;
75246;SDS011;63844;50.042;19.224;2023-04-03T05:25:47;6.00;;;2.40;;
75246;SDS011;63844;50.042;19.224;2023-04-03T05:28:15;4.40;;;1.90;;
75246;SDS011;63844;50.042;19.224;2023-04-03T05:30:41;4.40;;;2.60;;
75246;SDS011;63844;50.042;19.224;2023-04-03T05:33:08;3.60;;;2.10;;
75246;SDS011;63844;50.042;19.224;2023-04-03T05:35:36;6.90;;;3.60;;
75246;SDS011;63844;50.042;19.224;2023-04-03T05:38:06;9.40;;;3.60;;
75246;SDS011;63844;50.042;19.224;2023-04-03T05:40:33;5.70;;;3.30;;
75246;SDS011;63844;50.042;19.224;2023-04-03T05:43:00;6.40;;;2.90;;
75246;SDS011;63844;50.042;19.224;2023-04-03T05:45:27;8.30;;;3.60;;
75246;SDS011;63844;50.042;19.224;2023-04-03T05:47:53;5.30;;;2.40;;
75246;SDS011;63844;50.042;19.224;2023-04-03T05:50:20;4.40;;;2.10;;
75246;SDS011;63844;50.042;19.224;2023-04-03T05:52:47;8.30;;;3.90;;
75246;SDS011;63844;50.042;19.224;2023-04-03T05:55:17;5.80;;;3.20;;
75246;SDS011;63844;50.042;19.224;2023-04-03T05:57:43;8.60;;;4.90;;
75246;SDS011;63844;50.042;19.224;2023-04-03T06:00:12;6.60;;;3.40;;
75246;SDS011;63844;50.042;19.224;2023-04-03T06:02:41;5.30;;;2.10;;
75246;SDS011;63844;50.042;19.224;2023-04-03T06:05:09;3.10;;;1.40;;
75246;SDS011;63844;50.042;19.224;2023-04-03T06:07:37;3.10;;;1.70;;
75246;SDS011;63844;50.042;19.224;2023-04-03T06:10:04;4.40;;;2.60;;
75246;SDS011;63844;50.042;19.224;2023-04-03T06:12:31;4.70;;;2.00;;
75246;SDS011;63844;50.042;19.224;2023-04-03T06:14:58;3.10;;;1.90;;
75246;SDS011;63844;50.042;19.224;2023-04-03T06:17:24;6.80;;;2.70;;
75246;SDS011;63844;50.042;19.224;2023-04-03T06:19:51;3.50;;;1.20;;
75246;SDS011;63844;50.042;19.224;2023-04-03T06:22:18;6.40;;;2.70;;
75246;SDS011;63844;50.042;19.224;2023-04-03T06:24:44;7.50;;;2.90;;
75246;SDS011;63844;50.042;19.224;2023-04-03T06:29:38;5.40;;;2.60;;
75246;SDS011;63844;50.042;19.224;2023-04-03T06:32:05;3.30;;;1.60;;
75246;SDS011;63844;50.042;19.224;2023-04-03T06:34:32;3.70;;;1.50;;
75246;SDS011;63844;50.042;19.224;2023-04-03T06:39:26;3.60;;;1.60;;
75246;SDS011;63844;50.042;19.224;2023-04-03T06:41:53;4.80;;;1.70;;
75246;SDS011;63844;50.042;19.224;2023-04-03T06:44:19;4.30;;;2.00;;
75246;SDS011;63844;50.042;19.224;2023-04-03T06:46:46;4.60;;;1.70;;
75246;SDS011;63844;50.042;19.224;2023-04-03T06:49:13;5.90;;;2.40;;
75246;SDS011;63844;50.042;19.224;2023-04-03T06:54:06;8.80;;;2.30;;
75246;SDS011;63844;50.042;19.224;2023-04-03T06:56:34;5.40;;;2.10;;
75246;SDS011;63844;50.042;19.224;2023-04-03T06:59:01;4.00;;;1.70;;
75246;SDS011;63844;50.042;19.224;2023-04-03T07:01:29;3.90;;;1.90;;
75246;SDS011;63844;50.042;19.224;2023-04-03T07:06:23;4.10;;;1.80;;
75246;SDS011;63844;50.042;19.224;2023-04-03T07:08:49;6.40;;;1.70;;
75246;SDS011;63844;50.042;19.224;2023-04-03T07:11:16;7.20;;;2.00;;
75246;SDS011;63844;50.042;19.224;2023-04-03T07:13:43;4.70;;;2.00;;
75246;SDS011;63844;50.042;19.224;2023-04-03T07:16:10;7.30;;;2.50;;
75246;SDS011;63844;50.042;19.224;2023-04-03T07:18:37;5.90;;;1.70;;
75246;SDS011;63844;50.042;19.224;2023-04-03T07:21:03;5.70;;;1.40;;
75246;SDS011;63844;50.042;19.224;2023-04-03T07:23:30;4.10;;;1.50;;
75246;SDS011;63844;50.042;19.224;2023-04-03T07:25:57;4.30;;;1.60;;
75246;SDS011;63844;50.042;19.224;2023-04-03T07:28:24;6.30;;;1.70;;
75246;SDS011;63844;50.042;19.224;2023-04-03T07:30:53;3.00;;;1.40;;
75246;SDS011;63844;50.042;19.224;2023-04-03T07:33:25;3.20;;;1.20;;
75246;SDS011;63844;50.042;19.224;2023-04-03T07:35:52;5.60;;;1.60;;
75246;SDS011;63844;50.042;19.224;2023-04-03T07:38:18;3.30;;;1.00;;
75246;SDS011;63844;50.042;19.224;2023-04-03T07:40:46;3.80;;;1.20;;
75246;SDS011;63844;50.042;19.224;2023-04-03T07:43:15;5.40;;;1.80;;
75246;SDS011;63844;50.042;19.224;2023-04-03T07:45:43;5.40;;;1.40;;
75246;SDS011;63844;50.042;19.224;2023-04-03T07:48:11;4.70;;;1.40;;
75246;SDS011;63844;50.042;19.224;2023-04-03T07:50:41;5.30;;;2.00;;
75246;SDS011;63844;50.042;19.224;2023-04-03T07:53:08;8.60;;;2.50;;
75246;SDS011;63844;50.042;19.224;2023-04-03T07:55:35;7.10;;;2.10;;
75246;SDS011;63844;50.042;19.224;2023-04-03T07:58:09;5.20;;;2.10;;
75246;SDS011;63844;50.042;19.224;2023-04-03T08:00:37;9.50;;;2.60;;
75246;SDS011;63844;50.042;19.224;2023-04-03T08:03:05;7.00;;;2.30;;
75246;SDS011;63844;50.042;19.224;2023-04-03T08:05:36;10.20;;;2.90;;
75246;SDS011;63844;50.042;19.224;2023-04-03T08:08:04;9.60;;;2.40;;
75246;SDS011;63844;50.042;19.224;2023-04-03T08:12:57;5.40;;;1.60;;
75246;SDS011;63844;50.042;19.224;2023-04-03T08:15:24;5.20;;;2.30;;
75246;SDS011;63844;50.042;19.224;2023-04-03T08:17:50;9.10;;;2.10;;
75246;SDS011;63844;50.042;19.224;2023-04-03T08:22:44;2.80;;;1.10;;
75246;SDS011;63844;50.042;19.224;2023-04-03T08:25:11;5.40;;;2.00;;
75246;SDS011;63844;50.042;19.224;2023-04-03T08:27:38;6.40;;;2.10;;
75246;SDS011;63844;50.042;19.224;2023-04-03T08:30:04;7.30;;;2.50;;
75246;SDS011;63844;50.042;19.224;2023-04-03T08:32:35;5.60;;;2.20;;
75246;SDS011;63844;50.042;19.224;2023-04-03T08:35:03;4.80;;;1.90;;
75246;SDS011;63844;50.042;19.224;2023-04-03T08:37:30;4.30;;;1.50;;
75246;SDS011;63844;50.042;19.224;2023-04-03T08:39:58;7.40;;;2.10;;
75246;SDS011;63844;50.042;19.224;2023-04-03T08:45:10;7.20;;;2.30;;
75246;SDS011;63844;50.042;19.224;2023-04-03T08:48:00;5.30;;;1.70;;
75246;SDS011;63844;50.042;19.224;2023-04-03T08:50:34;3.20;;;1.10;;
75246;SDS011;63844;50.042;19.224;2023-04-03T08:53:05;4.70;;;1.70;;
75246;SDS011;63844;50.042;19.224;2023-04-03T08:55:39;2.40;;;0.80;;
75246;SDS011;63844;50.042;19.224;2023-04-03T08:58:11;3.60;;;1.30;;
75246;SDS011;63844;50.042;19.224;2023-04-03T09:01:44;6.60;;;1.70;;
75246;SDS011;63844;50.042;19.224;2023-04-03T09:03:51;5.90;;;1.60;;
75246;SDS011;63844;50.042;19.224;2023-04-03T09:06:21;4.70;;;1.20;;
75246;SDS011;63844;50.042;19.224;2023-04-03T09:09:00;4.60;;;1.50;;
75246;SDS011;63844;50.042;19.224;2023-04-03T09:11:52;4.90;;;2.10;;
75246;SDS011;63844;50.042;19.224;2023-04-03T09:14:39;4.50;;;1.90;;
75246;SDS011;63844;50.042;19.224;2023-04-03T09:17:30;6.50;;;2.00;;
75246;SDS011;63844;50.042;19.224;2023-04-03T09:23:11;3.60;;;1.30;;
75246;SDS011;63844;50.042;19.224;2023-04-03T09:25:52;7.10;;;2.40;;
75246;SDS011;63844;50.042;19.224;2023-04-03T09:28:21;9.20;;;3.00;;
75246;SDS011;63844;50.042;19.224;2023-04-03T09:30:47;6.80;;;2.60;;
75246;SDS011;63844;50.042;19.224;2023-04-03T09:33:14;6.10;;;2.30;;
75246;SDS011;63844;50.042;19.224;2023-04-03T09:35:41;4.40;;;1.80;;
75246;SDS011;63844;50.042;19.224;2023-04-03T09:38:17;3.90;;;1.70;;
75246;SDS011;63844;50.042;19.224;2023-04-03T09:40:50;5.50;;;1.60;;
75246;SDS011;63844;50.042;19.224;2023-04-03T09:43:31;3.10;;;1.10;;
75246;SDS011;63844;50.042;19.224;2023-04-03T09:46:45;3.70;;;1.70;;
75246;SDS011;63844;50.042;19.224;2023-04-03T09:48:59;2.50;;;0.70;;
75246;SDS011;63844;50.042;19.224;2023-04-03T09:51:28;3.00;;;1.10;;
75246;SDS011;63844;50.042;19.224;2023-04-03T09:53:56;1.80;;;0.70;;
75246;SDS011;63844;50.042;19.224;2023-04-03T09:56:25;4.00;;;1.40;;
75246;SDS011;63844;50.042;19.224;2023-04-03T10:01:27;6.50;;;1.50;;
75246;SDS011;63844;50.042;19.224;2023-04-03T10:06:47;5.40;;;1.60;;
75246;SDS011;63844;50.042;19.224;2023-04-03T10:09:23;6.50;;;2.00;;
75246;SDS011;63844;50.042;19.224;2023-04-03T10:15:00;3.90;;;1.00;;
75246;SDS011;63844;50.042;19.224;2023-04-03T10:17:32;5.60;;;1.30;;
75246;SDS011;63844;50.042;19.224;2023-04-03T10:20:06;1.70;;;0.80;;
75246;SDS011;63844;50.042;19.224;2023-04-03T10:23:11;3.00;;;0.70;;
75246;SDS011;63844;50.042;19.224;2023-04-03T10:28:42;2.50;;;0.90;;
75246;SDS011;63844;50.042;19.224;2023-04-03T10:31:29;1.70;;;0.50;;
75246;SDS011;63844;50.042;19.224;2023-04-03T10:51:48;1.50;;;0.60;;
75246;SDS011;63844;50.042;19.224;2023-04-03T10:54:24;1.90;;;0.40;;
75246;SDS011;63844;50.042;19.224;2023-04-03T10:57:01;1.60;;;0.50;;
75246;SDS011;63844;50.042;19.224;2023-04-03T11:04:36;1.40;;;0.60;;
75246;SDS011;63844;50.042;19.224;2023-04-03T11:07:18;1.20;;;0.40;;
75246;SDS011;63844;50.042;19.224;2023-04-03T11:09:50;1.50;;;0.50;;
75246;SDS011;63844;50.042;19.224;2023-04-03T11:14:53;1.80;;;0.50;;
75246;SDS011;63844;50.042;19.224;2023-04-03T11:20:14;1.50;;;0.60;;
75246;SDS011;63844;50.042;19.224;2023-04-03T11:25:32;2.40;;;0.50;;
75246;SDS011;63844;50.042;19.224;2023-04-03T11:28:04;2.80;;;0.60;;
75246;SDS011;63844;50.042;19.224;2023-04-03T11:36:05;3.30;;;0.60;;
75246;SDS011;63844;50.042;19.224;2023-04-03T11:38:36;0.70;;;0.30;;
75246;SDS011;63844;50.042;19.224;2023-04-03T11:41:09;1.60;;;0.70;;
75246;SDS011;63844;50.042;19.224;2023-04-03T11:43:41;1.30;;;0.80;;
75246;SDS011;63844;50.042;19.224;2023-04-03T11:46:21;0.70;;;0.30;;
75246;SDS011;63844;50.042;19.224;2023-04-03T11:48:48;0.90;;;0.40;;
75246;SDS011;63844;50.042;19.224;2023-04-03T11:53:55;0.90;;;0.30;;
75246;SDS011;63844;50.042;19.224;2023-04-03T11:57:22;2.10;;;0.60;;
75246;SDS011;63844;50.042;19.224;2023-04-03T12:18:56;2.80;;;0.80;;
75246;SDS011;63844;50.042;19.224;2023-04-03T12:23:57;2.50;;;0.80;;
75246;SDS011;63844;50.042;19.224;2023-04-03T12:26:25;2.30;;;0.90;;
75246;SDS011;63844;50.042;19.224;2023-04-03T12:28:54;1.90;;;0.60;;
75246;SDS011;63844;50.042;19.224;2023-04-03T12:31:22;1.70;;;0.40;;
75246;SDS011;63844;50.042;19.224;2023-04-03T12:34:03;1.70;;;0.80;;
75246;SDS011;63844;50.042;19.224;2023-04-03T12:36:54;2.20;;;0.70;;
75246;SDS011;63844;50.042;19.224;2023-04-03T12:39:55;1.10;;;0.40;;
75246;SDS011;63844;50.042;19.224;2023-04-03T12:45:22;1.90;;;0.50;;
75246;SDS011;63844;50.042;19.224;2023-04-03T12:47:51;0.90;;;0.30;;
75246;SDS011;63844;50.042;19.224;2023-04-03T12:50:30;2.20;;;0.60;;
75246;SDS011;63844;50.042;19.224;2023-04-03T12:52:59;2.30;;;0.40;;
75246;SDS011;63844;50.042;19.224;2023-04-03T12:55:30;1.40;;;0.50;;
75246;SDS011;63844;50.042;19.224;2023-04-03T12:57:56;1.70;;;0.70;;
75246;SDS011;63844;50.042;19.224;2023-04-03T13:02:53;6.50;;;0.80;;
75246;SDS011;63844;50.042;19.224;2023-04-03T13:05:20;1.50;;;0.70;;
75246;SDS011;63844;50.042;19.224;2023-04-03T13:07:49;1.40;;;0.80;;
75246;SDS011;63844;50.042;19.224;2023-04-03T13:10:23;2.40;;;0.70;;
75246;SDS011;63844;50.042;19.224;2023-04-03T13:12:51;1.90;;;0.70;;
75246;SDS011;63844;50.042;19.224;2023-04-03T13:15:24;3.10;;;0.90;;
75246;SDS011;63844;50.042;19.224;2023-04-03T13:17:54;1.30;;;0.70;;
75246;SDS011;63844;50.042;19.224;2023-04-03T13:20:24;1.20;;;0.60;;
75246;SDS011;63844;50.042;19.224;2023-04-03T13:23:03;1.90;;;0.50;;
75246;SDS011;63844;50.042;19.224;2023-04-03T13:25:35;5.10;;;0.90;;
75246;SDS011;63844;50.042;19.224;2023-04-03T13:28:07;1.50;;;0.80;;
75246;SDS011;63844;50.042;19.224;2023-04-03T13:30:38;3.20;;;0.60;;
75246;SDS011;63844;50.042;19.224;2023-04-03T13:33:17;3.20;;;0.90;;
75246;SDS011;63844;50.042;19.224;2023-04-03T13:35:47;2.60;;;0.90;;
75246;SDS011;63844;50.042;19.224;2023-04-03T13:40:47;2.50;;;0.70;;
75246;SDS011;63844;50.042;19.224;2023-04-03T13:43:17;2.20;;;0.70;;
75246;SDS011;63844;50.042;19.224;2023-04-03T13:45:57;1.60;;;0.60;;
75246;SDS011;63844;50.042;19.224;2023-04-03T13:48:40;2.60;;;0.90;;
75246;SDS011;63844;50.042;19.224;2023-04-03T13:53:43;1.50;;;0.60;;
75246;SDS011;63844;50.042;19.224;2023-04-03T13:58:53;4.70;;;1.00;;
75246;SDS011;63844;50.042;19.224;2023-04-03T14:01:22;2.00;;;0.80;;
75246;SDS011;63844;50.042;19.224;2023-04-03T14:03:54;3.10;;;1.00;;
75246;SDS011;63844;50.042;19.224;2023-04-03T14:06:21;2.60;;;0.90;;
75246;SDS011;63844;50.042;19.224;2023-04-03T14:08:50;2.10;;;0.90;;
75246;SDS011;63844;50.042;19.224;2023-04-03T14:11:21;2.60;;;0.80;;
75246;SDS011;63844;50.042;19.224;2023-04-03T14:13:51;2.50;;;1.50;;
75246;SDS011;63844;50.042;19.224;2023-04-03T14:16:18;4.60;;;2.40;;
75246;SDS011;63844;50.042;19.224;2023-04-03T14:18:48;4.60;;;2.50;;
75246;SDS011;63844;50.042;19.224;2023-04-03T14:21:16;10.80;;;7.20;;
75246;SDS011;63844;50.042;19.224;2023-04-03T14:23:44;3.60;;;1.50;;
75246;SDS011;63844;50.042;19.224;2023-04-03T14:26:12;6.40;;;2.20;;
75246;SDS011;63844;50.042;19.224;2023-04-03T14:28:42;3.40;;;0.90;;
75246;SDS011;63844;50.042;19.224;2023-04-03T14:31:11;5.40;;;1.40;;
75246;SDS011;63844;50.042;19.224;2023-04-03T14:33:38;2.00;;;1.00;;
75246;SDS011;63844;50.042;19.224;2023-04-03T14:36:25;3.50;;;0.90;;
75246;SDS011;63844;50.042;19.224;2023-04-03T14:38:54;2.20;;;0.70;;
75246;SDS011;63844;50.042;19.224;2023-04-03T14:41:22;2.30;;;1.00;;
75246;SDS011;63844;50.042;19.224;2023-04-03T14:43:50;3.20;;;1.10;;
75246;SDS011;63844;50.042;19.224;2023-04-03T14:46:22;2.90;;;1.20;;
75246;SDS011;63844;50.042;19.224;2023-04-03T14:48:52;5.20;;;1.40;;
75246;SDS011;63844;50.042;19.224;2023-04-03T14:51:18;2.80;;;0.80;;
75246;SDS011;63844;50.042;19.224;2023-04-03T14:53:45;8.80;;;2.30;;
75246;SDS011;63844;50.042;19.224;2023-04-03T14:56:22;10.30;;;3.00;;
75246;SDS011;63844;50.042;19.224;2023-04-03T14:58:54;15.60;;;3.50;;
75246;SDS011;63844;50.042;19.224;2023-04-03T15:01:23;1.70;;;0.90;;
75246;SDS011;63844;50.042;19.224;2023-04-03T15:03:50;2.60;;;1.10;;
75246;SDS011;63844;50.042;19.224;2023-04-03T15:06:17;1.60;;;0.80;;
75246;SDS011;63844;50.042;19.224;2023-04-03T15:08:43;5.50;;;1.10;;
75246;SDS011;63844;50.042;19.224;2023-04-03T15:11:13;4.90;;;1.20;;
75246;SDS011;63844;50.042;19.224;2023-04-03T15:13:40;1.50;;;0.70;;
75246;SDS011;63844;50.042;19.224;2023-04-03T15:16:16;5.00;;;0.90;;
75246;SDS011;63844;50.042;19.224;2023-04-03T15:18:44;3.40;;;1.00;;
75246;SDS011;63844;50.042;19.224;2023-04-03T15:21:12;3.20;;;1.00;;
75246;SDS011;63844;50.042;19.224;2023-04-03T15:23:39;2.60;;;1.30;;
75246;SDS011;63844;50.042;19.224;2023-04-03T15:26:05;1.50;;;0.80;;
75246;SDS011;63844;50.042;19.224;2023-04-03T15:28:33;4.20;;;1.10;;
75246;SDS011;63844;50.042;19.224;2023-04-03T15:31:03;2.90;;;0.60;;
75246;SDS011;63844;50.042;19.224;2023-04-03T15:33:31;6.10;;;1.80;;
75246;SDS011;63844;50.042;19.224;2023-04-03T15:35:58;4.20;;;1.20;;
75246;SDS011;63844;50.042;19.224;2023-04-03T15:38:25;6.50;;;1.30;;
75246;SDS011;63844;50.042;19.224;2023-04-03T15:40:52;2.50;;;0.90;;
75246;SDS011;63844;50.042;19.224;2023-04-03T15:43:20;2.40;;;1.10;;
75246;SDS011;63844;50.042;19.224;2023-04-03T15:45:47;3.10;;;1.40;;
75246;SDS011;63844;50.042;19.224;2023-04-03T15:48:14;2.70;;;1.10;;
75246;SDS011;63844;50.042;19.224;2023-04-03T15:50:42;1.70;;;0.60;;
75246;SDS011;63844;50.042;19.224;2023-04-03T15:53:09;3.50;;;1.10;;
75246;SDS011;63844;50.042;19.224;2023-04-03T15:55:37;2.50;;;0.80;;
75246;SDS011;63844;50.042;19.224;2023-04-03T15:58:04;4.50;;;1.10;;
75246;SDS011;63844;50.042;19.224;2023-04-03T16:00:31;2.10;;;0.70;;
75246;SDS011;63844;50.042;19.224;2023-04-03T16:05:27;1.80;;;0.50;;
75246;SDS011;63844;50.042;19.224;2023-04-03T16:10:21;4.10;;;1.10;;
75246;SDS011;63844;50.042;19.224;2023-04-03T16:12:48;13.50;;;5.00;;
75246;SDS011;63844;50.042;19.224;2023-04-03T16:15:14;14.40;;;4.70;;
75246;SDS011;63844;50.042;19.224;2023-04-03T16:17:41;12.20;;;4.10;;
75246;SDS011;63844;50.042;19.224;2023-04-03T16:20:08;23.80;;;7.60;;
75246;SDS011;63844;50.042;19.224;2023-04-03T16:22:36;16.30;;;5.20;;
75246;SDS011;63844;50.042;19.224;2023-04-03T16:25:04;10.20;;;3.90;;
75246;SDS011;63844;50.042;19.224;2023-04-03T16:27:32;11.70;;;4.30;;
75246;SDS011;63844;50.042;19.224;2023-04-03T16:29:59;12.20;;;5.40;;
75246;SDS011;63844;50.042;19.224;2023-04-03T16:32:26;7.20;;;2.10;;
75246;SDS011;63844;50.042;19.224;2023-04-03T16:34:55;12.00;;;4.20;;
75246;SDS011;63844;50.042;19.224;2023-04-03T16:37:22;11.30;;;3.90;;
75246;SDS011;63844;50.042;19.224;2023-04-03T16:39:49;13.30;;;5.30;;
75246;SDS011;63844;50.042;19.224;2023-04-03T16:42:16;10.10;;;3.00;;
75246;SDS011;63844;50.042;19.224;2023-04-03T16:44:42;8.10;;;2.70;;
75246;SDS011;63844;50.042;19.224;2023-04-03T16:47:09;9.40;;;2.90;;
75246;SDS011;63844;50.042;19.224;2023-04-03T16:49:36;3.20;;;1.60;;
75246;SDS011;63844;50.042;19.224;2023-04-03T16:52:03;8.00;;;2.60;;